Time;durP1;ratioP1;P1;durP2;ratioP2;P2;SDS_P1;SDS_P2;PMS_P1;PMS_P2;Temp;Humidity;BMP_temperature;BMP_pressure;BME280_temperature;BME280_humidity;BME280_pressure;Samples;Min_cycle;Max_cycle;Signal;HPM_P1;HPM_P2
2022/10/17 00:02:22;;;;;;;31.30;27.92;;;;;;;12.73;100.00;100429.69;5091565;28;20382;-85
2022/10/17 00:04:48;;;;;;;30.98;26.95;;;;;;;12.65;100.00;100422.19;5090327;28;20020;-84
2022/10/17 00:07:13;;;;;;;30.17;25.83;;;;;;;12.71;100.00;100429.75;5090262;28;20044;-85
2022/10/17 00:09:42;;;;;;;33.83;27.17;;;;;;;12.62;100.00;100421.44;5090228;28;20674;-84
2022/10/17 00:12:07;;;;;;;35.20;28.67;;;;;;;12.65;100.00;100429.16;5091558;28;20020;-85
2022/10/17 00:14:33;;;;;;;31.02;27.33;;;;;;;12.67;100.00;100435.16;5091357;28;20023;-84
2022/10/17 00:16:58;;;;;;;34.67;28.50;;;;;;;12.53;100.00;100414.84;5091569;28;20144;-85
2022/10/17 00:19:24;;;;;;;33.35;29.48;;;;;;;12.61;100.00;100436.28;5091812;28;20048;-84
2022/10/17 00:21:49;;;;;;;31.20;27.80;;;;;;;12.62;100.00;100439.75;5093985;28;20051;-85
2022/10/17 00:24:15;;;;;;;35.78;30.73;;;;;;;12.63;100.00;100442.28;5095265;28;20638;-84
2022/10/17 00:26:40;;;;;;;35.95;29.13;;;;;;;12.64;100.00;100441.41;5095247;28;20040;-85
2022/10/17 00:29:05;;;;;;;34.13;29.38;;;;;;;12.55;100.00;100433.06;5095164;28;20060;-84
2022/10/17 00:31:31;;;;;;;35.30;30.00;;;;;;;12.62;100.00;100447.59;5093297;28;20035;-84
2022/10/17 00:33:56;;;;;;;32.75;29.10;;;;;;;12.59;100.00;100442.47;5093933;28;20020;-84
2022/10/17 00:36:24;;;;;;;33.55;28.50;;;;;;;12.57;100.00;100444.31;5095173;28;20485;-85
2022/10/17 00:38:56;;;;;;;32.50;28.35;;;;;;;12.44;100.00;100421.31;5094918;28;20027;-85
2022/10/17 00:41:25;;;;;;;35.08;30.30;;;;;;;12.47;100.00;100433.38;5094972;28;20107;-85
2022/10/17 00:44:07;;;;;;;35.28;29.88;;;;;;;12.43;100.00;100434.44;5094742;28;20489;-85
2022/10/17 00:46:35;;;;;;;36.17;29.23;;;;;;;12.47;100.00;100447.31;5094759;28;20020;-84
2022/10/17 00:49:07;;;;;;;33.38;28.40;;;;;;;12.33;100.00;100436.56;5095227;28;20031;-84
2022/10/17 00:51:38;;;;;;;33.45;28.85;;;;;;;12.46;100.00;100450.81;5094624;28;20020;-84
2022/10/17 00:54:05;;;;;;;33.95;28.23;;;;;;;12.36;100.00;100439.06;5094737;28;20034;-85
2022/10/17 00:56:31;;;;;;;35.60;30.25;;;;;;;12.40;100.00;100450.25;5094564;28;20362;-84
2022/10/17 00:58:57;;;;;;;33.72;30.13;;;;;;;12.38;100.00;100449.44;5094836;28;20046;-85
2022/10/17 01:01:22;;;;;;;38.50;28.70;;;;;;;12.37;100.00;100450.38;5093316;28;20447;-85
2022/10/17 01:03:47;;;;;;;36.10;29.95;;;;;;;12.38;100.00;100452.91;5094492;28;20391;-85
2022/10/17 01:06:13;;;;;;;37.70;31.05;;;;;;;12.33;100.00;100444.41;5094257;28;20055;-85
2022/10/17 01:08:38;;;;;;;33.53;29.10;;;;;;;12.33;100.00;100447.03;5094291;28;20031;-84
2022/10/17 01:11:22;;;;;;;34.67;29.17;;;;;;;12.40;100.00;100455.47;5092959;28;20028;-85
2022/10/17 01:13:54;;;;;;;33.88;28.58;;;;;;;12.37;100.00;100448.59;5094478;28;20027;-84
2022/10/17 01:16:28;;;;;;;36.60;29.90;;;;;;;12.39;100.00;100451.16;5094305;28;20024;-85
2022/10/17 01:19:29;;;;;;;41.67;31.75;;;;;;;12.38;100.00;100454.66;5093912;28;20028;-84
2022/10/17 01:22:19;;;;;;;36.33;30.85;;;;;;;12.28;100.00;100440.31;5092912;28;20032;-84
2022/10/17 01:25:30;;;;;;;40.40;33.38;;;;;;;12.31;100.00;100453.25;5093834;28;20486;-85
2022/10/17 01:28:39;;;;;;;41.60;32.20;;;;;;;12.33;100.00;100456.63;5031288;28;20034;-85
2022/10/17 01:31:19;;;;;;;35.88;30.75;;;;;;;12.19;100.00;100429.31;5031272;28;20091;-84
2022/10/17 01:33:53;;;;;;;37.58;31.00;;;;;;;12.26;100.00;100439.50;5031120;28;20125;-85
2022/10/17 01:36:44;;;;;;;44.53;33.58;;;;;;;12.26;100.00;100444.72;5014691;28;20405;-84
2022/10/17 01:39:15;;;;;;;35.92;31.33;;;;;;;12.24;100.00;100444.81;5031291;28;20729;-84
2022/10/17 01:41:48;;;;;;;41.88;32.22;;;;;;;12.14;100.00;100425.22;5031245;28;20030;-84
2022/10/17 01:44:20;;;;;;;37.65;32.47;;;;;;;12.15;100.00;100424.28;5031085;28;20025;-85
2022/10/17 01:46:58;;;;;;;38.17;32.50;;;;;;;12.15;100.00;100424.28;5030782;28;20508;-84
2022/10/17 01:49:27;;;;;;;38.58;31.52;;;;;;;12.13;100.00;100421.72;5031012;28;20033;-84
2022/10/17 01:52:22;;;;;;;38.33;32.42;;;;;;;12.14;100.00;100427.81;5030996;28;20072;-84
2022/10/17 01:55:05;;;;;;;36.58;31.42;;;;;;;12.11;100.00;100427.94;5030967;28;20033;-85
2022/10/17 01:57:40;;;;;;;40.55;33.40;;;;;;;12.07;100.00;100419.38;5031112;28;20403;-85
2022/10/17 02:00:10;;;;;;;44.20;34.97;;;;;;;12.12;100.00;100427.00;5093494;28;20020;-85
2022/10/17 02:02:36;;;;;;;41.78;34.75;;;;;;;12.11;100.00;100425.31;5093065;28;20039;-84
2022/10/17 02:05:03;;;;;;;40.85;32.60;;;;;;;12.09;100.00;100427.13;5093328;28;20024;-84
2022/10/17 02:07:28;;;;;;;41.47;34.95;;;;;;;12.13;100.00;100439.16;5093504;28;20476;-84
2022/10/17 02:09:54;;;;;;;40.15;33.38;;;;;;;12.12;100.00;100459.19;5093149;28;20049;-84
2022/10/17 02:12:41;;;;;;;37.72;31.58;;;;;;;12.12;100.00;100456.59;5093301;28;20028;-84
2022/10/17 02:15:25;;;;;;;38.17;32.00;;;;;;;12.04;100.00;100445.59;5093425;28;20024;-84
2022/10/17 02:17:57;;;;;;;39.90;33.47;;;;;;;12.12;100.00;100468.78;5093153;28;20028;-84
2022/10/17 02:20:44;;;;;;;37.80;31.88;;;;;;;12.09;100.00;100464.53;5093136;28;20099;-84
2022/10/17 02:23:36;;;;;;;38.55;31.27;;;;;;;12.09;100.00;100458.47;5091738;28;20028;-84
2022/10/17 02:26:14;;;;;;;38.97;33.30;;;;;;;12.03;100.00;100464.78;5010383;28;20397;-84
2022/10/17 02:28:49;;;;;;;41.50;31.63;;;;;;;12.08;100.00;100469.81;5010279;28;20100;-84
2022/10/17 02:31:55;;;;;;;40.22;32.75;;;;;;;12.06;100.00;100464.69;5010776;28;20038;-84
2022/10/17 02:34:26;;;;;;;38.92;31.48;;;;;;;11.99;100.00;100456.22;4994017;28;20030;-85
2022/10/17 02:36:57;;;;;;;37.88;33.03;;;;;;;11.98;100.00;100458.91;4993699;28;20061;-85
2022/10/17 02:39:24;;;;;;;40.22;32.40;;;;;;;12.02;100.00;100467.47;4993948;28;20069;-85
2022/10/17 02:41:52;;;;;;;36.53;31.55;;;;;;;11.95;100.00;100461.63;5009839;28;20072;-85
2022/10/17 02:44:19;;;;;;;39.60;32.35;;;;;;;11.94;100.00;100468.63;5009825;28;20044;-84
2022/10/17 02:46:54;;;;;;;38.72;32.20;;;;;;;11.94;100.00;100483.44;5010205;28;20049;-84
2022/10/17 02:49:24;;;;;;;38.15;31.60;;;;;;;11.87;100.00;100467.16;5010392;28;20109;-85
2022/10/17 02:52:23;;;;;;;39.78;32.25;;;;;;;11.92;100.00;100477.41;4993600;28;20061;-84
2022/10/17 02:55:03;;;;;;;37.25;31.15;;;;;;;11.92;100.00;100472.19;4951960;28;20557;-85
2022/10/17 02:57:52;;;;;;;41.45;33.92;;;;;;;11.94;100.00;100473.00;4951844;28;20039;-85
2022/10/17 03:00:19;;;;;;;39.97;33.35;;;;;;;11.89;100.00;100464.50;4951704;28;20391;-84
2022/10/17 03:02:50;;;;;;;43.55;36.42;;;;;;;11.93;100.00;100469.53;4984937;28;20031;-84
2022/10/17 03:05:22;;;;;;;46.55;35.97;;;;;;;11.89;100.00;100470.56;5049586;28;20036;-84
2022/10/17 03:07:47;;;;;;;41.45;33.20;;;;;;;11.86;100.00;100462.00;5049074;28;20045;-85
2022/10/17 03:10:13;;;;;;;43.20;34.97;;;;;;;11.90;100.00;100474.88;5049562;28;20037;-85
2022/10/17 03:12:38;;;;;;;41.03;33.55;;;;;;;11.87;100.00;100468.91;5049555;28;20044;-84
2022/10/17 03:15:04;;;;;;;40.17;34.10;;;;;;;11.85;100.00;100476.81;5049277;28;20476;-84
2022/10/17 03:17:30;;;;;;;39.80;32.78;;;;;;;11.84;100.00;100485.56;5049476;28;20472;-84
2022/10/17 03:19:55;;;;;;;40.80;33.63;;;;;;;11.85;100.00;100491.63;5049228;28;20124;-85
2022/10/17 03:22:21;;;;;;;42.10;33.80;;;;;;;11.80;100.00;100483.94;5049184;28;20021;-85
2022/10/17 03:24:46;;;;;;;44.35;33.03;;;;;;;11.79;100.00;100483.97;5049185;28;20040;-85
2022/10/17 03:27:11;;;;;;;46.83;33.85;;;;;;;11.78;100.00;100483.13;5049565;28;20025;-85
2022/10/17 03:29:37;;;;;;;38.90;32.25;;;;;;;11.75;100.00;100483.25;5032739;28;20492;-85
2022/10/17 03:32:02;;;;;;;40.92;32.63;;;;;;;11.70;100.00;100485.19;5077619;28;20431;-84
2022/10/17 03:34:27;;;;;;;47.03;34.95;;;;;;;11.72;100.00;100479.00;5092037;28;20016;-84
2022/10/17 03:36:53;;;;;;;42.30;35.10;;;;;;;11.73;100.00;100490.28;5091668;28;20395;-85
2022/10/17 03:39:18;;;;;;;38.97;31.98;;;;;;;11.68;100.00;100484.41;5091874;28;20020;-85
2022/10/17 03:41:43;;;;;;;41.53;33.53;;;;;;;11.63;100.00;100479.38;5091633;28;20150;-86
2022/10/17 03:44:09;;;;;;;39.13;32.20;;;;;;;11.59;100.00;100480.38;5090606;28;20035;-85
2022/10/17 03:46:34;;;;;;;37.00;31.17;;;;;;;11.65;100.00;100497.56;5091916;28;20095;-85
2022/10/17 03:49:00;;;;;;;39.72;32.85;;;;;;;11.63;100.00;100494.13;5091595;28;20414;-85
2022/10/17 03:51:25;;;;;;;40.92;32.50;;;;;;;11.58;100.00;100490.84;5090399;28;20021;-85
2022/10/17 03:53:50;;;;;;;44.30;33.58;;;;;;;11.57;100.00;100489.16;5092569;28;20028;-85
2022/10/17 03:56:18;;;;;;;40.05;34.13;;;;;;;11.62;100.00;100495.06;5095783;28;20451;-85
2022/10/17 03:58:44;;;;;;;37.95;31.95;;;;;;;11.61;100.00;100503.78;5094371;28;20039;-85
2022/10/17 04:01:12;;;;;;;39.97;31.08;;;;;;;11.53;100.00;100496.25;5095862;28;20024;-84
2022/10/17 04:03:38;;;;;;;38.60;31.90;;;;;;;11.52;100.00;100489.34;5095745;28;20103;-84
2022/10/17 04:06:04;;;;;;;40.35;32.50;;;;;;;11.50;100.00;100488.53;5095274;28;20024;-84
2022/10/17 04:08:30;;;;;;;43.10;34.17;;;;;;;11.57;100.00;100500.44;5095822;28;20056;-84
2022/10/17 04:10:59;;;;;;;38.67;31.88;;;;;;;11.54;100.00;100502.31;5095755;28;20048;-84
2022/10/17 04:13:25;;;;;;;37.85;32.22;;;;;;;11.51;100.00;100502.44;5095623;28;20026;-84
2022/10/17 04:16:02;;;;;;;38.38;33.10;;;;;;;11.46;100.00;100493.03;5095144;28;20378;-84
2022/10/17 04:18:27;;;;;;;43.13;35.17;;;;;;;11.44;100.00;100494.84;5095391;28;20020;-84
2022/10/17 04:20:53;;;;;;;42.25;33.47;;;;;;;11.48;100.00;100508.63;5095074;28;20337;-84
2022/10/17 04:23:18;;;;;;;38.80;31.73;;;;;;;11.41;100.00;100505.38;5095457;28;20205;-84
2022/10/17 04:25:44;;;;;;;35.97;31.48;;;;;;;11.44;100.00;100514.84;5094097;28;20111;-84
2022/10/17 04:28:10;;;;;;;37.30;31.10;;;;;;;11.45;100.00;100511.31;5095538;28;20098;-84
2022/10/17 04:30:35;;;;;;;40.53;31.33;;;;;;;11.42;100.00;100511.47;5095526;28;20035;-84
2022/10/17 04:33:01;;;;;;;40.95;33.25;;;;;;;11.42;100.00;100501.88;5093548;28;20050;-85
2022/10/17 04:35:26;;;;;;;41.65;34.33;;;;;;;11.45;100.00;100506.13;5094724;28;20024;-85
2022/10/17 04:37:51;;;;;;;39.60;31.95;;;;;;;11.35;100.00;100496.94;5094458;28;20107;-86
2022/10/17 04:40:17;;;;;;;38.05;32.30;;;;;;;11.41;100.00;100507.13;5093473;28;20115;-85
2022/10/17 04:42:42;;;;;;;37.92;31.63;;;;;;;11.43;100.00;100507.94;5094807;28;20020;-85
2022/10/17 04:45:08;;;;;;;41.75;32.63;;;;;;;11.41;100.00;100521.00;5094384;28;20028;-84
2022/10/17 04:47:33;;;;;;;40.70;33.22;;;;;;;11.38;100.00;100515.94;5094777;28;20536;-85
2022/10/17 04:49:59;;;;;;;45.20;33.13;;;;;;;11.32;100.00;100513.53;5094711;28;20095;-85
2022/10/17 04:52:24;;;;;;;41.03;33.53;;;;;;;11.29;100.00;100507.56;5095142;28;20031;-85
2022/10/17 04:54:50;;;;;;;44.38;36.65;;;;;;;11.36;100.00;100514.28;5094623;28;20024;-85
2022/10/17 04:57:15;;;;;;;45.42;36.45;;;;;;;11.32;100.00;100500.50;5094984;28;20016;-85
2022/10/17 04:59:41;;;;;;;47.38;37.17;;;;;;;11.34;100.00;100505.66;5094655;28;20458;-85
2022/10/17 05:02:06;;;;;;;50.47;38.45;;;;;;;11.40;100.00;100516.72;5093232;28;20026;-85
2022/10/17 05:04:32;;;;;;;48.70;37.15;;;;;;;11.33;100.00;100511.78;5094397;28;20051;-85
2022/10/17 05:06:57;;;;;;;46.13;37.83;;;;;;;11.38;100.00;100525.53;5093609;28;20480;-85
2022/10/17 05:09:22;;;;;;;49.03;37.47;;;;;;;11.31;100.00;100516.19;5094540;28;20038;-85
2022/10/17 05:11:48;;;;;;;56.80;45.95;;;;;;;11.34;100.00;100519.56;5094272;28;20023;-85
2022/10/17 05:14:14;;;;;;;51.22;42.40;;;;;;;11.38;100.00;100520.31;5094513;28;20095;-86
2022/10/17 05:16:40;;;;;;;54.35;43.38;;;;;;;11.40;100.00;100524.53;5093025;28;20028;-85
2022/10/17 05:19:05;;;;;;;56.90;42.70;;;;;;;11.43;100.00;100527.03;5092648;28;20111;-85
2022/10/17 05:21:31;;;;;;;57.97;44.80;;;;;;;11.44;100.00;100530.50;5094753;28;20028;-85
2022/10/17 05:23:56;;;;;;;64.97;47.30;;;;;;;11.44;100.00;100538.31;5094085;28;20027;-86
2022/10/17 05:26:22;;;;;;;53.80;43.85;;;;;;;11.36;100.00;100522.09;5094161;28;20035;-86
2022/10/17 05:28:48;;;;;;;59.83;43.85;;;;;;;11.43;100.00;100540.09;5093992;28;20027;-86
2022/10/17 05:31:14;;;;;;;52.00;40.58;;;;;;;11.45;100.00;100533.03;5094309;28;20019;-86
2022/10/17 05:33:40;;;;;;;50.13;38.08;;;;;;;11.51;100.00;100537.22;5093875;28;20099;-86
2022/10/17 05:36:06;;;;;;;49.60;39.10;;;;;;;11.54;100.00;100539.69;5093836;28;20032;-86
2022/10/17 05:38:31;;;;;;;47.75;38.72;;;;;;;11.64;100.00;100553.28;5093847;28;20099;-86
2022/10/17 05:40:58;;;;;;;47.40;38.08;;;;;;;11.64;100.00;100548.91;5093826;28;20154;-86
2022/10/17 05:43:24;;;;;;;46.03;36.30;;;;;;;11.73;100.00;100553.78;5093739;28;20023;-86
2022/10/17 05:45:50;;;;;;;44.78;36.65;;;;;;;11.77;100.00;100553.66;5093753;28;20028;-86
2022/10/17 05:48:15;;;;;;;43.40;35.05;;;;;;;11.82;100.00;100557.81;5092174;28;20097;-86
2022/10/17 05:50:40;;;;;;;42.50;34.55;;;;;;;11.84;100.00;100542.97;5092426;28;20022;-86
2022/10/17 05:53:06;;;;;;;46.15;36.58;;;;;;;12.01;100.00;100550.19;5093231;28;20077;-86
2022/10/17 05:55:32;;;;;;;41.42;33.75;;;;;;;12.13;100.00;100560.13;5093546;28;20371;-86
2022/10/17 05:57:59;;;;;;;44.38;36.20;;;;;;;12.34;100.00;100568.03;5093268;28;20081;-86
2022/10/17 06:00:24;;;;;;;46.60;35.40;;;;;;;12.41;100.00;100553.84;5092027;28;20035;-86
2022/10/17 06:02:49;;;;;;;40.85;33.97;;;;;;;12.65;100.00;100563.31;5093081;28;20016;-86
2022/10/17 06:05:16;;;;;;;41.80;34.10;;;;;;;12.79;100.00;100556.66;5091895;28;20027;-86
2022/10/17 06:07:41;;;;;;;41.40;34.58;;;;;;;13.01;100.00;100581.00;5093283;28;20533;-85
2022/10/17 06:10:07;;;;;;;41.88;31.80;;;;;;;13.06;100.00;100573.81;5093056;28;20016;-86
2022/10/17 06:12:33;;;;;;;41.70;33.50;;;;;;;13.20;100.00;100571.47;5093639;28;20072;-86
2022/10/17 06:14:58;;;;;;;40.45;33.88;;;;;;;13.36;100.00;100569.09;5092761;28;20404;-86
2022/10/17 06:17:23;;;;;;;41.28;32.67;;;;;;;13.62;100.00;100572.31;5092963;28;20066;-86
2022/10/17 06:19:49;;;;;;;48.13;33.60;;;;;;;13.82;100.00;100574.03;5093522;28;20028;-85
2022/10/17 06:22:14;;;;;;;44.33;33.47;;;;;;;14.00;100.00;100560.09;5093004;28;20020;-85
2022/10/17 06:24:40;;;;;;;46.10;32.60;;;;;;;14.16;100.00;100579.44;5093067;28;20027;-85
2022/10/17 06:27:05;;;;;;;44.25;33.45;;;;;;;14.56;100.00;100576.72;5092744;28;20024;-85
2022/10/17 06:29:30;;;;;;;36.70;31.33;;;;;;;14.95;100.00;100585.25;5091587;28;20048;-86
2022/10/17 06:31:56;;;;;;;33.35;28.27;;;;;;;15.00;100.00;100579.78;5092882;28;20032;-85
2022/10/17 06:34:21;;;;;;;38.05;29.63;;;;;;;15.30;100.00;100598.38;5093376;28;20020;-85
2022/10/17 06:36:47;;;;;;;35.72;29.77;;;;;;;15.48;100.00;100586.06;5091634;28;20020;-86
2022/10/17 06:39:12;;;;;;;39.70;32.78;;;;;;;15.70;100.00;100593.69;5092632;28;20027;-86
2022/10/17 06:41:39;;;;;;;37.42;29.60;;;;;;;16.38;100.00;100591.75;5092714;28;20024;-86
2022/10/17 06:44:09;;;;;;;42.80;31.45;;;;;;;16.93;100.00;100590.41;5091039;28;20027;-86
2022/10/17 06:46:36;;;;;;;35.47;27.85;;;;;;;16.98;98.69;100598.91;5093008;28;20114;-86
2022/10/17 06:49:01;;;;;;;32.90;27.67;;;;;;;17.27;97.86;100605.06;5092506;28;20336;-86
2022/10/17 06:51:26;;;;;;;29.73;26.30;;;;;;;18.74;93.27;100592.50;5092703;28;20052;-86
2022/10/17 06:53:51;;;;;;;29.38;25.65;;;;;;;20.25;85.87;100605.03;5092485;28;20099;-86
2022/10/17 06:56:18;;;;;;;28.38;24.92;;;;;;;20.13;83.11;100596.19;5092529;28;20027;-86
2022/10/17 06:58:44;;;;;;;30.13;23.70;;;;;;;19.96;84.67;100610.59;5092426;28;20020;-86
2022/10/17 07:01:11;;;;;;;34.85;25.02;;;;;;;20.46;83.51;100600.00;5092076;28;20032;-87
2022/10/17 07:03:39;;;;;;;27.42;23.40;;;;;;;21.89;77.54;100604.19;5092870;28;20090;-87
2022/10/17 07:06:04;;;;;;;27.25;23.75;;;;;;;21.45;76.13;100591.75;5090883;28;20019;-86
2022/10/17 07:08:29;;;;;;;27.35;23.25;;;;;;;20.62;78.32;100608.53;5091169;28;20053;-86
2022/10/17 07:10:55;;;;;;;28.75;24.20;;;;;;;20.48;80.05;100612.22;5092141;28;20028;-87
2022/10/17 07:13:20;;;;;;;32.78;27.35;;;;;;;20.99;76.15;100611.97;5092265;28;20028;-87
2022/10/17 07:15:46;;;;;;;30.88;25.00;;;;;;;21.18;76.82;100612.25;5092044;28;20459;-87
2022/10/17 07:18:12;;;;;;;28.67;23.08;;;;;;;20.66;77.71;100608.22;5073990;28;20074;-87
2022/10/17 07:20:39;;;;;;;29.52;23.33;;;;;;;20.13;78.96;100619.97;5092260;28;20016;-87
2022/10/17 07:23:04;;;;;;;28.90;23.77;;;;;;;19.56;81.28;100634.50;5091845;28;20020;-86
2022/10/17 07:25:30;;;;;;;31.02;23.70;;;;;;;19.45;82.48;100626.44;5092047;28;20475;-86
2022/10/17 07:27:56;;;;;;;28.52;22.48;;;;;;;19.29;83.06;100616.06;5092308;28;20067;-86
2022/10/17 07:30:21;;;;;;;27.13;22.95;;;;;;;19.33;83.63;100638.69;5096996;28;20479;-86
2022/10/17 07:32:47;;;;;;;26.45;23.02;;;;;;;19.36;84.25;100638.47;5097673;28;20133;-87
2022/10/17 07:35:13;;;;;;;25.30;22.05;;;;;;;19.29;83.83;100634.53;5098842;28;20047;-87
2022/10/17 07:37:39;;;;;;;28.55;23.85;;;;;;;19.18;83.35;100622.06;5098805;28;20024;-86
2022/10/17 07:40:06;;;;;;;27.25;23.02;;;;;;;19.07;82.98;100631.66;5098425;28;20023;-87
2022/10/17 07:42:35;;;;;;;30.33;24.25;;;;;;;18.94;84.07;100619.25;5097223;28;20391;-87
2022/10/17 07:45:00;;;;;;;26.92;21.92;;;;;;;18.99;84.44;100634.81;5097068;28;20105;-86
2022/10/17 07:47:26;;;;;;;25.67;21.55;;;;;;;19.12;84.49;100634.84;5095757;28;20101;-86
2022/10/17 07:49:51;;;;;;;29.90;24.42;;;;;;;19.26;83.71;100633.94;5091465;28;20081;-86
2022/10/17 07:52:17;;;;;;;27.35;22.30;;;;;;;19.12;83.54;100619.00;5083320;28;20029;-86
2022/10/17 07:54:43;;;;;;;28.73;23.35;;;;;;;19.17;82.96;100633.59;5079175;28;20103;-86
2022/10/17 07:57:09;;;;;;;25.30;21.02;;;;;;;19.16;84.03;100633.69;5077565;28;20100;-86
2022/10/17 07:59:37;;;;;;;23.98;20.92;;;;;;;19.28;84.22;100634.66;5077356;28;20032;-86
2022/10/17 08:02:03;;;;;;;27.88;23.38;;;;;;;19.28;84.05;100626.75;5078165;28;20062;-86
2022/10/17 08:04:28;;;;;;;26.45;22.75;;;;;;;19.44;83.28;100632.69;5078267;28;20027;-86
2022/10/17 08:06:54;;;;;;;28.50;22.48;;;;;;;19.41;82.60;100635.53;5078233;28;20036;-86
2022/10/17 08:09:19;;;;;;;28.52;21.92;;;;;;;19.46;82.80;100633.41;5078278;28;20110;-87
2022/10/17 08:11:45;;;;;;;25.63;21.88;;;;;;;19.44;82.59;100627.41;5080840;28;20043;-87
2022/10/17 08:14:15;;;;;;;25.33;22.60;;;;;;;19.37;82.60;100639.31;5085628;28;20408;-86
2022/10/17 08:16:41;;;;;;;29.48;22.85;;;;;;;19.36;82.52;100638.47;5088054;28;20031;-87
2022/10/17 08:19:07;;;;;;;26.60;21.55;;;;;;;19.42;83.02;100627.50;5084654;28;20024;-86
2022/10/17 08:21:33;;;;;;;31.88;23.55;;;;;;;19.45;82.41;100643.13;5088735;28;20138;-87
2022/10/17 08:24:01;;;;;;;28.10;22.48;;;;;;;19.32;83.00;100639.63;5088094;28;20115;-86
2022/10/17 08:26:27;;;;;;;26.88;22.40;;;;;;;19.29;83.39;100644.28;5090197;28;20027;-87
2022/10/17 08:28:52;;;;;;;27.30;22.27;;;;;;;19.34;84.41;100639.53;5078152;28;20028;-86
2022/10/17 08:31:19;;;;;;;25.70;21.73;;;;;;;19.37;84.53;100640.16;5077963;28;20025;-86
2022/10/17 08:33:46;;;;;;;26.25;22.70;;;;;;;19.39;83.59;100632.16;5092247;28;20038;-87
2022/10/17 08:36:13;;;;;;;26.88;22.40;;;;;;;19.42;83.94;100638.06;5097526;28;20374;-86
2022/10/17 08:38:41;;;;;;;26.73;23.17;;;;;;;19.30;83.54;100633.63;5097755;28;20020;-86
2022/10/17 08:41:17;;;;;;;28.52;22.90;;;;;;;19.11;84.36;100630.50;5093854;28;20099;-86
2022/10/17 08:43:51;;;;;;;30.42;23.85;;;;;;;18.99;85.10;100634.81;5094591;28;20016;-87
2022/10/17 08:46:18;;;;;;;29.45;23.92;;;;;;;18.89;86.10;100637.22;5092940;28;20043;-86
2022/10/17 08:48:46;;;;;;;33.55;26.20;;;;;;;18.90;86.18;100630.13;5091345;28;20048;-85
2022/10/17 08:51:20;;;;;;;25.98;22.73;;;;;;;18.94;86.23;100629.81;5074175;28;20533;-85
2022/10/17 08:53:59;;;;;;;31.05;24.23;;;;;;;18.89;86.46;100633.72;5074943;28;20028;-85
2022/10/17 08:56:32;;;;;;;30.27;25.13;;;;;;;18.82;86.93;100624.50;5074492;28;20039;-85
2022/10/17 08:58:57;;;;;;;26.05;21.25;;;;;;;18.85;86.88;100629.59;5074461;28;20024;-85
2022/10/17 09:01:28;;;;;;;25.85;22.58;;;;;;;18.91;87.14;100634.47;5074337;28;20525;-85
2022/10/17 09:04:09;;;;;;;31.17;25.88;;;;;;;18.82;86.72;100640.34;5074366;28;20094;-85
2022/10/17 09:06:39;;;;;;;29.02;22.23;;;;;;;18.78;87.67;100633.56;5074401;28;20472;-85
2022/10/17 09:09:04;;;;;;;27.23;23.52;;;;;;;18.75;87.45;100639.91;5074284;28;20062;-86
2022/10/17 09:11:30;;;;;;;26.92;23.23;;;;;;;18.80;87.81;100639.63;5074223;28;20028;-85
2022/10/17 09:14:07;;;;;;;28.30;23.85;;;;;;;18.81;87.79;100639.50;5072681;28;20107;-85
2022/10/17 09:16:44;;;;;;;25.60;21.98;;;;;;;18.82;87.84;100637.69;5074252;28;20024;-85
2022/10/17 09:19:21;;;;;;;27.38;21.27;;;;;;;18.79;87.98;100630.81;5073738;28;20100;-85
2022/10/17 09:21:58;;;;;;;30.45;20.85;;;;;;;18.92;87.95;100636.16;5077312;28;20051;-85
2022/10/17 09:24:38;;;;;;;26.52;22.33;;;;;;;18.87;87.83;100632.97;5093946;28;20170;-85
2022/10/17 09:27:05;;;;;;;25.70;22.92;;;;;;;18.89;88.05;100626.66;5093827;28;20138;-85
2022/10/17 09:29:30;;;;;;;30.33;23.13;;;;;;;18.90;87.29;100632.78;5094211;28;20168;-85
2022/10/17 09:32:23;;;;;;;25.58;21.42;;;;;;;18.93;87.56;100630.78;5094172;28;20519;-85
2022/10/17 09:34:52;;;;;;;24.38;20.98;;;;;;;19.02;87.97;100629.31;5011495;28;20049;-85
2022/10/17 09:37:18;;;;;;;26.60;21.90;;;;;;;19.06;86.69;100628.19;5011226;28;20037;-85
2022/10/17 09:39:44;;;;;;;25.65;21.20;;;;;;;19.08;87.21;100620.13;4994981;28;20123;-85
2022/10/17 09:42:18;;;;;;;23.80;20.58;;;;;;;19.11;87.54;100619.94;4994592;28;20029;-85
2022/10/17 09:44:49;;;;;;;25.85;19.15;;;;;;;19.26;87.71;100629.50;5011243;28;20061;-85
2022/10/17 09:47:40;;;;;;;26.20;20.67;;;;;;;19.36;85.37;100619.16;5011390;28;20156;-85
2022/10/17 09:50:19;;;;;;;24.83;20.63;;;;;;;19.32;85.43;100618.50;4952880;29;20065;-85
2022/10/17 09:52:47;;;;;;;26.02;20.55;;;;;;;19.45;85.53;100627.28;4936571;29;20687;-86
2022/10/17 09:55:24;;;;;;;21.95;19.52;;;;;;;19.53;85.76;100625.91;4952617;29;20027;-84
2022/10/17 09:58:01;;;;;;;22.85;18.77;;;;;;;19.56;85.37;100623.91;4953079;29;20072;-85
2022/10/17 10:00:47;;;;;;;22.23;18.52;;;;;;;19.60;85.96;100606.91;4952353;28;20051;-85
2022/10/17 10:03:21;;;;;;;22.55;19.50;;;;;;;19.73;84.80;100619.31;4936405;29;20027;-85
2022/10/17 10:05:59;;;;;;;23.52;19.55;;;;;;;19.77;84.16;100620.78;4952530;29;20525;-86
2022/10/17 10:08:28;;;;;;;20.40;18.13;;;;;;;19.74;85.27;100607.78;4952342;29;20035;-85
2022/10/17 10:11:03;;;;;;;21.83;18.95;;;;;;;19.83;84.83;100620.34;4973307;28;20471;-85
2022/10/17 10:13:30;;;;;;;22.25;19.08;;;;;;;19.88;84.73;100619.06;5050261;28;20037;-85
2022/10/17 10:16:14;;;;;;;23.77;18.83;;;;;;;19.89;84.35;100602.28;5050437;28;20116;-85
2022/10/17 10:18:39;;;;;;;23.88;18.67;;;;;;;19.99;84.05;100614.84;5050485;28;20028;-85
2022/10/17 10:21:07;;;;;;;26.75;19.52;;;;;;;20.03;83.85;100614.50;5050305;28;20387;-85
2022/10/17 10:23:33;;;;;;;20.20;17.92;;;;;;;20.08;83.31;100617.66;5050351;28;20021;-86
2022/10/17 10:26:14;;;;;;;23.48;18.00;;;;;;;20.07;82.78;100605.41;5052876;28;20143;-85
2022/10/17 10:28:40;;;;;;;21.17;17.15;;;;;;;20.11;82.32;100613.97;5093300;28;20370;-85
2022/10/17 10:31:08;;;;;;;20.83;17.88;;;;;;;20.15;82.48;100618.94;5092774;28;20404;-86
2022/10/17 10:33:39;;;;;;;21.98;18.13;;;;;;;20.19;82.34;100603.69;5091306;28;20478;-85
2022/10/17 10:36:06;;;;;;;23.70;19.35;;;;;;;20.26;81.60;100609.38;5092938;28;20478;-86
2022/10/17 10:38:33;;;;;;;23.23;17.88;;;;;;;20.35;82.23;100611.34;5092863;28;20016;-85
2022/10/17 10:41:08;;;;;;;24.25;19.15;;;;;;;20.41;80.78;100618.88;5092990;28;20047;-85
2022/10/17 10:43:38;;;;;;;28.27;20.08;;;;;;;20.42;80.63;100620.53;5092549;28;20012;-86
2022/10/17 10:46:26;;;;;;;22.30;17.25;;;;;;;20.48;80.38;100614.84;5092846;28;20028;-85
2022/10/17 10:48:58;;;;;;;22.95;17.42;;;;;;;20.46;80.26;100600.84;5091358;28;20016;-86
2022/10/17 10:51:47;;;;;;;21.10;16.58;;;;;;;20.59;80.36;100617.53;5092365;28;20481;-86
2022/10/17 10:54:18;;;;;;;20.00;17.90;;;;;;;20.59;78.85;100603.47;5092264;28;20462;-85
2022/10/17 10:56:48;;;;;;;22.80;18.20;;;;;;;20.65;79.19;100601.22;5092353;28;20386;-86
2022/10/17 10:59:22;;;;;;;25.92;18.02;;;;;;;20.71;79.20;100609.66;5092144;28;20481;-86
2022/10/17 11:01:55;;;;;;;18.60;16.60;;;;;;;20.75;80.15;100609.34;5092476;28;20020;-85
2022/10/17 11:04:43;;;;;;;23.15;18.00;;;;;;;20.75;79.32;100587.31;5091293;28;20016;-86
2022/10/17 11:07:32;;;;;;;23.35;18.98;;;;;;;20.90;78.43;100594.97;5092119;28;20055;-86
2022/10/17 11:10:08;;;;;;;21.15;18.83;;;;;;;20.93;78.60;100584.13;5092358;28;20016;-86
2022/10/17 11:12:38;;;;;;;19.23;15.98;;;;;;;21.08;78.53;100592.72;5092312;28;20016;-86
2022/10/17 11:15:41;;;;;;;19.33;16.30;;;;;;;21.15;78.36;100587.78;5092035;28;20482;-86
2022/10/17 11:18:23;;;;;;;23.10;16.42;;;;;;;21.24;77.20;100588.91;5092264;28;20068;-86